createdAt,value
2022-09-15T00:02:46.390Z,15.76
2022-09-15T00:06:22.340Z,15.81
2022-09-15T00:09:59.448Z,15.87
2022-09-15T00:13:38.573Z,15.90
2022-09-15T00:17:12.934Z,15.91
2022-09-15T00:20:49.517Z,15.87
2022-09-15T00:24:26.545Z,15.78
2022-09-15T00:28:03.443Z,15.71
2022-09-15T00:31:40.040Z,15.64
2022-09-15T00:35:17.712Z,15.56
2022-09-15T00:38:54.528Z,15.58
2022-09-15T00:42:49.314Z,15.66
2022-09-15T00:46:31.834Z,15.71
2022-09-15T00:50:16.759Z,15.74
2022-09-15T00:54:00.904Z,15.77
2022-09-15T00:57:29.241Z,15.80
2022-09-15T01:01:02.240Z,15.82
2022-09-15T01:04:36.556Z,15.85
2022-09-15T01:08:25.038Z,15.82
2022-09-15T01:12:08.902Z,15.83
2022-09-15T01:16:12.400Z,15.82
2022-09-15T01:20:31.879Z,15.77
2022-09-15T01:24:31.253Z,15.74
2022-09-15T01:28:24.415Z,15.67
2022-09-15T01:32:27.721Z,15.63
2022-09-15T01:35:56.322Z,15.61
2022-09-15T01:39:32.203Z,15.62
2022-09-15T01:43:25.007Z,15.61
2022-09-15T01:46:52.335Z,15.62
2022-09-15T01:50:32.963Z,15.65
2022-09-15T01:54:04.069Z,15.63
2022-09-15T01:57:37.237Z,15.59
2022-09-15T02:01:50.988Z,15.54
2022-09-15T02:05:25.473Z,15.52
2022-09-15T02:09:00.513Z,15.52
2022-09-15T02:12:35.622Z,15.50
2022-09-15T02:16:04.972Z,15.54
2022-09-15T02:19:43.163Z,15.60
2022-09-15T02:23:42.910Z,15.60
2022-09-15T02:27:28.192Z,15.60
2022-09-15T02:30:53.541Z,15.56
2022-09-15T02:34:34.286Z,15.50
2022-09-15T02:38:07.517Z,15.36
2022-09-15T02:41:41.668Z,15.23
2022-09-15T02:45:17.474Z,15.18
2022-09-15T02:48:54.482Z,15.16
2022-09-15T02:52:31.095Z,15.21
2022-09-15T02:56:08.041Z,15.23
2022-09-15T03:00:02.940Z,15.24
2022-09-15T03:03:26.458Z,15.21
2022-09-15T03:07:02.119Z,15.18
2022-09-15T03:10:58.400Z,15.23
2022-09-15T03:14:39.095Z,15.27
2022-09-15T03:18:02.109Z,15.24
2022-09-15T03:21:37.819Z,15.21
2022-09-15T03:25:14.451Z,15.19
2022-09-15T03:28:51.199Z,15.18
2022-09-15T03:32:46.736Z,15.18
2022-09-15T03:36:27.976Z,15.19
2022-09-15T03:39:49.862Z,15.18
2022-09-15T03:43:45.306Z,15.14
2022-09-15T03:47:07.118Z,15.10
2022-09-15T03:50:43.699Z,15.09
2022-09-15T03:54:21.093Z,15.04
2022-09-15T03:57:57.408Z,14.97
2022-09-15T04:01:35.271Z,14.89
2022-09-15T04:05:13.266Z,14.85
2022-09-15T04:08:49.113Z,14.87
2022-09-15T04:12:24.696Z,14.88
2022-09-15T04:16:04.255Z,14.88
2022-09-15T04:19:37.992Z,14.92
2022-09-15T04:23:14.943Z,14.90
2022-09-15T04:26:51.657Z,14.81
2022-09-15T04:30:28.643Z,14.75
2022-09-15T04:34:05.496Z,14.70
2022-09-15T04:37:42.081Z,14.62
2022-09-15T04:41:37.861Z,14.56
2022-09-15T04:44:59.547Z,14.53
2022-09-15T04:48:56.079Z,14.53
2022-09-15T04:52:17.790Z,14.56
2022-09-15T04:56:11.562Z,14.56
2022-09-15T04:59:53.438Z,14.56
2022-09-15T05:03:15.312Z,14.54
2022-09-15T05:06:52.774Z,14.53
2022-09-15T05:10:28.789Z,14.52
2022-09-15T05:14:06.032Z,14.54
2022-09-15T05:17:42.681Z,14.60
2022-09-15T05:21:21.487Z,14.68
2022-09-15T05:24:56.194Z,14.67
2022-09-15T05:28:34.842Z,14.69
2022-09-15T05:32:09.807Z,14.69
2022-09-15T05:35:58.729Z,14.63
2022-09-15T05:39:23.367Z,14.59
2022-09-15T05:43:19.722Z,14.58
2022-09-15T05:46:40.987Z,14.55
2022-09-15T05:50:38.704Z,14.56
2022-09-15T05:54:00.589Z,14.56
2022-09-15T05:57:37.154Z,14.59
2022-09-15T06:01:19.887Z,14.63
2022-09-15T06:04:50.716Z,14.67
2022-09-15T06:08:35.976Z,14.72
2022-09-15T06:12:04.987Z,14.76
2022-09-15T06:16:12.289Z,14.80
2022-09-15T06:19:37.813Z,14.87
2022-09-15T06:23:30.254Z,14.95
2022-09-15T06:26:53.722Z,15.02
2022-09-15T06:30:30.285Z,15.05
2022-09-15T06:34:06.811Z,15.04
2022-09-15T06:37:43.454Z,15.09
2022-09-15T06:41:21.607Z,15.16
2022-09-15T06:44:58.221Z,15.15
2022-09-15T06:48:35.247Z,15.14
2022-09-15T06:52:29.903Z,15.19
2022-09-15T06:55:52.161Z,15.15
2022-09-15T06:59:28.415Z,15.09
2022-09-15T07:03:24.323Z,15.13
2022-09-15T07:06:47.591Z,15.12
2022-09-15T07:10:44.228Z,15.12
2022-09-15T07:14:25.209Z,15.10
2022-09-15T07:18:06.098Z,15.12
2022-09-15T07:21:27.632Z,15.17
2022-09-15T07:25:23.805Z,15.19
2022-09-15T07:28:50.059Z,15.25
2022-09-15T07:32:22.573Z,15.31
2022-09-15T07:36:19.166Z,15.27
2022-09-15T07:39:41.016Z,15.25
2022-09-15T07:43:17.544Z,15.24
2022-09-15T07:46:54.638Z,15.30
2022-09-15T07:50:50.274Z,15.37
2022-09-15T07:54:30.691Z,15.45
2022-09-15T07:58:00.528Z,15.48
2022-09-15T08:01:29.479Z,15.45
2022-09-15T08:05:27.562Z,15.47
2022-09-15T08:08:55.232Z,15.51
2022-09-15T08:12:45.900Z,15.54
2022-09-15T08:16:09.525Z,15.58
2022-09-15T08:19:44.397Z,15.67
2022-09-15T08:23:40.527Z,15.72
2022-09-15T08:27:21.145Z,15.80
2022-09-15T08:30:42.996Z,15.82
2022-09-15T08:34:20.150Z,15.88
2022-09-15T08:38:15.718Z,15.88
2022-09-15T08:41:44.250Z,15.89
2022-09-15T08:45:48.889Z,15.95
2022-09-15T08:49:30.777Z,15.97
2022-09-15T08:53:37.125Z,16.02
2022-09-15T08:57:22.922Z,16.09
2022-09-15T09:00:48.834Z,16.24
2022-09-15T09:04:47.532Z,16.38
2022-09-15T09:08:32.225Z,16.47
2022-09-15T09:12:35.701Z,16.52
2022-09-15T09:16:36.239Z,16.54
2022-09-15T09:20:36.855Z,16.59
2022-09-15T09:24:14.555Z,16.67
2022-09-15T09:27:38.938Z,16.82
2022-09-15T09:31:21.457Z,16.84
2022-09-15T09:35:13.470Z,16.74
2022-09-15T09:38:39.834Z,16.74
2022-09-15T09:42:36.525Z,16.80
2022-09-15T09:45:59.419Z,16.85
2022-09-15T09:49:41.074Z,16.77
2022-09-15T09:53:32.463Z,16.76
2022-09-15T09:56:57.252Z,16.83
2022-09-15T10:00:52.160Z,16.87
2022-09-15T10:04:19.357Z,16.91
2022-09-15T10:08:18.723Z,16.92
2022-09-15T10:12:03.436Z,16.93
2022-09-15T10:15:27.994Z,16.92
2022-09-15T10:19:02.952Z,16.86
2022-09-15T10:23:20.531Z,16.82
2022-09-15T10:27:17.615Z,16.97
2022-09-15T10:30:58.814Z,17.07
2022-09-15T10:34:25.479Z,17.06
2022-09-15T10:38:28.195Z,17.02
2022-09-15T10:42:48.234Z,16.94
2022-09-15T10:46:50.651Z,16.75
2022-09-15T10:50:21.733Z,16.54
2022-09-15T10:54:09.689Z,16.47
2022-09-15T10:57:44.478Z,16.43
2022-09-15T11:01:32.242Z,16.37
2022-09-15T11:05:12.436Z,16.27
2022-09-15T11:09:08.036Z,16.21
2022-09-15T11:13:09.766Z,16.29
2022-09-15T11:17:10.051Z,16.35
2022-09-15T11:20:55.984Z,16.36
2022-09-15T11:24:44.270Z,16.42
2022-09-15T11:28:36.178Z,16.55
2022-09-15T11:32:58.033Z,16.72
2022-09-15T11:36:30.500Z,16.79
2022-09-15T11:40:16.409Z,16.71
2022-09-15T11:43:55.753Z,16.62
2022-09-15T11:47:24.258Z,16.63
2022-09-15T11:50:59.482Z,16.52
2022-09-15T11:54:43.274Z,16.58
2022-09-15T11:58:36.045Z,16.59
2022-09-15T12:02:17.074Z,16.50
2022-09-15T12:06:04.841Z,16.40
2022-09-15T12:09:27.218Z,16.32
2022-09-15T12:13:24.814Z,16.21
2022-09-15T12:16:47.656Z,16.14
2022-09-15T12:20:43.459Z,16.13
2022-09-15T12:24:51.969Z,16.10
2022-09-15T12:28:22.508Z,16.05
2022-09-15T12:32:26.222Z,16.09
2022-09-15T12:35:48.103Z,16.12
2022-09-15T12:39:41.005Z,16.11
2022-09-15T12:43:18.822Z,16.13
2022-09-15T12:46:51.601Z,16.17
2022-09-15T12:50:27.228Z,16.19
2022-09-15T12:54:00.398Z,16.19
2022-09-15T12:58:13.180Z,16.13
2022-09-15T13:01:56.011Z,16.09
2022-09-15T13:05:50.929Z,16.10
2022-09-15T13:09:28.086Z,16.19
2022-09-15T13:13:11.343Z,16.23
2022-09-15T13:16:48.806Z,16.22
2022-09-15T13:20:20.109Z,16.20
2022-09-15T13:23:53.119Z,16.16
2022-09-15T13:27:49.070Z,16.08
2022-09-15T13:31:34.597Z,16.02
2022-09-15T13:35:26.712Z,15.95
2022-09-15T13:39:36.362Z,15.91
2022-09-15T13:43:29.891Z,15.90
2022-09-15T13:47:22.928Z,15.90
2022-09-15T13:51:01.674Z,15.87
2022-09-15T13:54:24.556Z,15.86
2022-09-15T14:02:09.203Z,15.89
2022-09-15T14:05:45.483Z,15.89
2022-09-15T14:09:46.816Z,15.87
2022-09-15T14:13:15.860Z,15.81
2022-09-15T14:17:05.142Z,15.69
2022-09-15T14:20:33.513Z,15.60
2022-09-15T14:24:07.039Z,15.56
2022-09-15T14:27:51.572Z,15.53
2022-09-15T14:31:26.491Z,15.54
2022-09-15T14:34:59.190Z,15.55
2022-09-15T14:39:18.003Z,15.57
2022-09-15T14:42:41.528Z,15.63
2022-09-15T14:46:19.322Z,15.65
2022-09-15T14:50:20.966Z,15.64
2022-09-15T14:54:03.176Z,15.65
2022-09-15T14:57:30.865Z,15.70
2022-09-15T15:01:13.417Z,15.71
2022-09-15T15:05:08.026Z,15.69
2022-09-15T15:08:42.161Z,15.69
2022-09-15T15:12:33.698Z,15.63
2022-09-15T15:15:55.790Z,15.59
2022-09-15T15:19:41.176Z,15.57
2022-09-15T15:23:25.665Z,15.58
2022-09-15T15:27:43.012Z,15.57
2022-09-15T15:31:13.728Z,15.60
2022-09-15T15:35:08.369Z,15.65
2022-09-15T15:38:35.556Z,15.67
2022-09-15T15:42:28.173Z,15.67
2022-09-15T15:46:10.654Z,15.67
2022-09-15T15:50:12.374Z,15.70
2022-09-15T15:53:34.978Z,15.68
2022-09-15T15:57:37.331Z,15.59
2022-09-15T16:00:59.136Z,15.50
2022-09-15T16:04:35.928Z,15.42
2022-09-15T16:08:22.880Z,15.39
2022-09-15T16:12:08.921Z,15.33
2022-09-15T16:15:30.895Z,15.27
2022-09-15T16:19:08.539Z,15.21
2022-09-15T16:23:03.354Z,15.20
2022-09-15T16:26:26.020Z,15.22
2022-09-15T16:30:03.589Z,15.20
2022-09-15T16:33:39.780Z,15.18
2022-09-15T16:37:15.749Z,15.13
2022-09-15T16:41:17.470Z,15.19
2022-09-15T16:44:39.722Z,15.23
2022-09-15T16:48:34.938Z,15.22
2022-09-15T16:52:16.282Z,15.10
2022-09-15T16:55:40.497Z,14.95
2022-09-15T16:59:15.026Z,14.90
2022-09-15T17:02:51.660Z,14.84
2022-09-15T17:06:28.740Z,14.78
2022-09-15T17:10:06.065Z,14.73
2022-09-15T17:13:42.062Z,14.65
2022-09-15T17:17:25.498Z,14.59
2022-09-15T17:21:16.555Z,14.61
2022-09-15T17:24:38.352Z,14.65
2022-09-15T17:28:15.754Z,14.65
2022-09-15T17:31:52.075Z,14.61
2022-09-15T17:35:33.832Z,14.60
2022-09-15T17:39:05.904Z,14.58
2022-09-15T17:42:43.314Z,14.48
2022-09-15T17:46:19.267Z,14.41
2022-09-15T17:49:56.173Z,14.36
2022-09-15T17:53:32.945Z,14.36
2022-09-15T17:57:12.079Z,14.36
2022-09-15T18:00:47.751Z,14.34
2022-09-15T18:04:23.309Z,14.33
2022-09-15T18:08:03.481Z,14.33
2022-09-15T18:11:36.786Z,14.27
2022-09-15T18:15:17.710Z,14.24
2022-09-15T18:18:50.309Z,14.22
2022-09-15T18:22:27.002Z,14.15
2022-09-15T18:26:03.992Z,14.14
2022-09-15T18:29:59.806Z,14.16
2022-09-15T18:33:40.302Z,14.13
2022-09-15T18:37:02.662Z,14.07
2022-09-15T18:40:58.391Z,14.00
2022-09-15T18:44:39.282Z,14.00
2022-09-15T18:48:00.790Z,13.97
2022-09-15T18:51:51.148Z,14.00
2022-09-15T18:55:34.084Z,14.01
2022-09-15T18:59:17.671Z,14.01
2022-09-15T19:03:01.820Z,14.01
2022-09-15T19:06:23.467Z,13.99
2022-09-15T19:10:01.791Z,14.03
2022-09-15T19:13:56.391Z,14.09
2022-09-15T19:17:19.484Z,14.11
2022-09-15T19:21:14.506Z,14.10
2022-09-15T19:24:55.870Z,14.10
2022-09-15T19:28:17.600Z,14.12
2022-09-15T19:31:55.900Z,14.11
2022-09-15T19:36:05.067Z,14.12
2022-09-15T19:39:52.520Z,14.08
2022-09-15T19:43:14.499Z,14.00
2022-09-15T19:46:51.519Z,13.95
2022-09-15T19:50:28.742Z,13.91
2022-09-15T19:54:26.256Z,13.86
2022-09-15T19:58:07.526Z,13.86
2022-09-15T20:01:48.726Z,13.85
2022-09-15T20:05:29.676Z,13.84
2022-09-15T20:08:53.837Z,13.76
2022-09-15T20:12:28.268Z,13.75
2022-09-15T20:16:24.842Z,13.70
2022-09-15T20:19:46.591Z,13.58
2022-09-15T20:23:44.695Z,13.54
2022-09-15T20:27:25.400Z,13.49
2022-09-15T20:31:10.509Z,13.45
2022-09-15T20:34:32.385Z,13.47
2022-09-15T20:38:28.036Z,13.45
2022-09-15T20:41:50.072Z,13.37
2022-09-15T20:45:26.397Z,13.30
2022-09-15T20:49:04.663Z,13.27
2022-09-15T20:52:40.873Z,13.24
2022-09-15T20:56:21.297Z,13.24
2022-09-15T20:59:54.015Z,13.23
2022-09-15T21:03:49.412Z,13.23
2022-09-15T21:07:11.418Z,13.20
2022-09-15T21:10:49.346Z,13.17
2022-09-15T21:14:24.950Z,13.12
2022-09-15T21:18:21.007Z,13.08
2022-09-15T21:21:43.497Z,13.04
2022-09-15T21:25:20.820Z,13.00
2022-09-15T21:28:57.277Z,12.99
2022-09-15T21:32:52.397Z,13.00
2022-09-15T21:36:22.323Z,13.01
2022-09-15T21:40:10.213Z,13.01
2022-09-15T21:43:37.411Z,13.00
2022-09-15T21:47:08.937Z,12.97
2022-09-15T21:50:52.335Z,12.97
2022-09-15T21:54:22.814Z,12.96
2022-09-15T21:57:58.975Z,12.96
2022-09-15T22:01:54.618Z,12.96
2022-09-15T22:05:16.334Z,12.97
2022-09-15T22:08:54.854Z,12.94
2022-09-15T22:12:51.946Z,12.90
2022-09-15T22:16:32.338Z,12.87
2022-09-15T22:19:54.711Z,12.84
2022-09-15T22:23:52.708Z,12.84
2022-09-15T22:27:15.020Z,12.84
2022-09-15T22:30:56.934Z,12.83
2022-09-15T22:34:29.253Z,12.85
2022-09-15T22:38:05.046Z,12.88
2022-09-15T22:41:42.435Z,12.89
2022-09-15T22:45:19.023Z,12.87
2022-09-15T22:48:55.465Z,12.87
2022-09-15T22:52:51.689Z,12.87
2022-09-15T22:56:19.953Z,12.86
2022-09-15T23:00:10.160Z,12.87
2022-09-15T23:03:32.569Z,12.86
2022-09-15T23:07:09.188Z,12.82
2022-09-15T23:10:45.529Z,12.82
2022-09-15T23:14:41.877Z,12.83
2022-09-15T23:18:03.819Z,12.83
2022-09-15T23:21:40.873Z,12.77
2022-09-15T23:25:17.332Z,12.73
2022-09-15T23:28:54.770Z,12.71
2022-09-15T23:32:49.503Z,12.62
2022-09-15T23:36:30.140Z,12.55
2022-09-15T23:40:10.817Z,12.49
2022-09-15T23:43:33.357Z,12.38
2022-09-15T23:47:09.458Z,12.33
2022-09-15T23:50:46.500Z,12.31
2022-09-15T23:54:23.165Z,12.28
2022-09-15T23:57:59.863Z,12.20
